sensor_id;sensor_type;location;lat;lon;timestamp;temperature;humidity
54700;DHT22;40599;53.132;6.090;2022-10-26T00:02:14;10.40;99.90
54700;DHT22;40599;53.132;6.090;2022-10-26T00:04:41;10.50;99.90
54700;DHT22;40599;53.132;6.090;2022-10-26T00:07:06;10.40;99.90
54700;DHT22;40599;53.132;6.090;2022-10-26T00:09:32;10.40;99.90
54700;DHT22;40599;53.132;6.090;2022-10-26T00:11:57;10.40;99.90
54700;DHT22;40599;53.132;6.090;2022-10-26T00:14:23;10.40;99.90
54700;DHT22;40599;53.132;6.090;2022-10-26T00:16:49;10.40;99.90
54700;DHT22;40599;53.132;6.090;2022-10-26T00:19:14;10.40;99.90
54700;DHT22;40599;53.132;6.090;2022-10-26T00:21:40;10.40;99.90
54700;DHT22;40599;53.132;6.090;2022-10-26T00:24:05;10.40;99.90
54700;DHT22;40599;53.132;6.090;2022-10-26T00:26:31;10.40;99.90
54700;DHT22;40599;53.132;6.090;2022-10-26T00:28:57;10.40;99.90
54700;DHT22;40599;53.132;6.090;2022-10-26T00:31:22;10.40;99.90
54700;DHT22;40599;53.132;6.090;2022-10-26T00:33:54;10.40;99.90
54700;DHT22;40599;53.132;6.090;2022-10-26T00:36:21;10.30;99.90
54700;DHT22;40599;53.132;6.090;2022-10-26T00:38:47;10.30;99.90
54700;DHT22;40599;53.132;6.090;2022-10-26T00:41:16;10.30;99.90
54700;DHT22;40599;53.132;6.090;2022-10-26T00:43:42;10.30;99.90
54700;DHT22;40599;53.132;6.090;2022-10-26T00:46:12;10.30;99.90
54700;DHT22;40599;53.132;6.090;2022-10-26T00:48:42;10.20;99.90
54700;DHT22;40599;53.132;6.090;2022-10-26T00:51:09;10.20;99.90
54700;DHT22;40599;53.132;6.090;2022-10-26T00:53:37;10.10;99.90
54700;DHT22;40599;53.132;6.090;2022-10-26T00:56:03;10.10;99.90
54700;DHT22;40599;53.132;6.090;2022-10-26T00:58:28;10.10;99.90
54700;DHT22;40599;53.132;6.090;2022-10-26T01:00:54;10.10;99.90
54700;DHT22;40599;53.132;6.090;2022-10-26T01:03:20;10.00;99.90
54700;DHT22;40599;53.132;6.090;2022-10-26T01:05:49;10.00;99.90
54700;DHT22;40599;53.132;6.090;2022-10-26T01:08:15;10.00;99.90
54700;DHT22;40599;53.132;6.090;2022-10-26T01:10:41;9.90;99.90
54700;DHT22;40599;53.132;6.090;2022-10-26T01:13:07;9.90;99.90
54700;DHT22;40599;53.132;6.090;2022-10-26T01:18:07;9.90;99.90
54700;DHT22;40599;53.132;6.090;2022-10-26T01:20:40;9.80;99.90
54700;DHT22;40599;53.132;6.090;2022-10-26T01:25:40;9.80;99.90
54700;DHT22;40599;53.132;6.090;2022-10-26T01:28:12;9.70;99.90
54700;DHT22;40599;53.132;6.090;2022-10-26T01:30:43;9.70;99.90
54700;DHT22;40599;53.132;6.090;2022-10-26T01:43:29;9.60;99.90
54700;DHT22;40599;53.132;6.090;2022-10-26T01:45:56;9.60;99.90
54700;DHT22;40599;53.132;6.090;2022-10-26T01:48:22;9.60;99.90
54700;DHT22;40599;53.132;6.090;2022-10-26T01:50:51;9.60;99.90
54700;DHT22;40599;53.132;6.090;2022-10-26T01:53:17;9.60;99.90
54700;DHT22;40599;53.132;6.090;2022-10-26T02:01:00;9.60;99.90
54700;DHT22;40599;53.132;6.090;2022-10-26T02:06:10;9.50;99.90
54700;DHT22;40599;53.132;6.090;2022-10-26T02:14:24;9.50;99.90
54700;DHT22;40599;53.132;6.090;2022-10-26T02:16:46;9.50;99.90
54700;DHT22;40599;53.132;6.090;2022-10-26T02:19:18;9.50;99.90
54700;DHT22;40599;53.132;6.090;2022-10-26T02:21:47;9.50;99.90
54700;DHT22;40599;53.132;6.090;2022-10-26T02:24:14;8.10;99.90
54700;DHT22;40599;53.132;6.090;2022-10-26T02:26:41;9.50;99.90
54700;DHT22;40599;53.132;6.090;2022-10-26T02:29:09;9.50;99.90
54700;DHT22;40599;53.132;6.090;2022-10-26T02:31:35;9.50;99.90
54700;DHT22;40599;53.132;6.090;2022-10-26T02:34:03;9.40;99.90
54700;DHT22;40599;53.132;6.090;2022-10-26T02:36:32;9.50;99.90
54700;DHT22;40599;53.132;6.090;2022-10-26T02:38:59;9.50;99.90
54700;DHT22;40599;53.132;6.090;2022-10-26T02:41:25;9.50;99.90
54700;DHT22;40599;53.132;6.090;2022-10-26T02:44:15;9.50;99.90
54700;DHT22;40599;53.132;6.090;2022-10-26T02:46:38;9.50;99.90
54700;DHT22;40599;53.132;6.090;2022-10-26T02:49:04;9.50;99.90
54700;DHT22;40599;53.132;6.090;2022-10-26T02:54:09;9.50;99.90
54700;DHT22;40599;53.132;6.090;2022-10-26T02:56:42;9.50;99.90
54700;DHT22;40599;53.132;6.090;2022-10-26T02:59:10;9.50;99.90
54700;DHT22;40599;53.132;6.090;2022-10-26T03:01:36;9.40;99.90
54700;DHT22;40599;53.132;6.090;2022-10-26T03:04:02;9.40;99.90
54700;DHT22;40599;53.132;6.090;2022-10-26T03:06:28;9.40;99.90
54700;DHT22;40599;53.132;6.090;2022-10-26T03:08:53;9.40;99.90
54700;DHT22;40599;53.132;6.090;2022-10-26T03:11:19;9.40;99.90
54700;DHT22;40599;53.132;6.090;2022-10-26T03:13:45;9.40;99.90
54700;DHT22;40599;53.132;6.090;2022-10-26T03:16:10;9.40;99.90
54700;DHT22;40599;53.132;6.090;2022-10-26T03:18:36;9.40;99.90
54700;DHT22;40599;53.132;6.090;2022-10-26T03:21:01;9.40;99.90
54700;DHT22;40599;53.132;6.090;2022-10-26T03:23:27;9.30;99.90
54700;DHT22;40599;53.132;6.090;2022-10-26T03:25:56;9.30;99.90
54700;DHT22;40599;53.132;6.090;2022-10-26T03:28:22;9.30;99.90
54700;DHT22;40599;53.132;6.090;2022-10-26T03:30:47;9.40;99.90
54700;DHT22;40599;53.132;6.090;2022-10-26T03:33:13;9.40;99.90
54700;DHT22;40599;53.132;6.090;2022-10-26T03:35:39;9.40;99.90
54700;DHT22;40599;53.132;6.090;2022-10-26T03:38:04;9.40;99.90
54700;DHT22;40599;53.132;6.090;2022-10-26T03:40:30;9.40;99.90
54700;DHT22;40599;53.132;6.090;2022-10-26T03:42:55;9.30;99.90
54700;DHT22;40599;53.132;6.090;2022-10-26T03:45:21;9.40;99.90
54700;DHT22;40599;53.132;6.090;2022-10-26T03:47:47;9.30;99.90
54700;DHT22;40599;53.132;6.090;2022-10-26T03:50:14;9.40;99.90
54700;DHT22;40599;53.132;6.090;2022-10-26T03:52:40;9.30;99.90
54700;DHT22;40599;53.132;6.090;2022-10-26T03:55:06;9.30;99.90
54700;DHT22;40599;53.132;6.090;2022-10-26T03:57:32;9.30;99.90
54700;DHT22;40599;53.132;6.090;2022-10-26T03:59:57;9.30;99.90
54700;DHT22;40599;53.132;6.090;2022-10-26T04:02:23;9.30;99.90
54700;DHT22;40599;53.132;6.090;2022-10-26T04:04:49;9.30;99.90
54700;DHT22;40599;53.132;6.090;2022-10-26T04:07:14;9.20;99.90
54700;DHT22;40599;53.132;6.090;2022-10-26T04:09:40;9.30;99.90
54700;DHT22;40599;53.132;6.090;2022-10-26T04:12:05;9.30;99.90
54700;DHT22;40599;53.132;6.090;2022-10-26T04:14:31;9.30;99.90
54700;DHT22;40599;53.132;6.090;2022-10-26T04:16:56;9.30;99.90
54700;DHT22;40599;53.132;6.090;2022-10-26T04:19:22;9.40;99.90
54700;DHT22;40599;53.132;6.090;2022-10-26T04:21:49;9.40;99.90
54700;DHT22;40599;53.132;6.090;2022-10-26T04:24:15;9.40;99.90
54700;DHT22;40599;53.132;6.090;2022-10-26T04:26:41;9.50;99.90
54700;DHT22;40599;53.132;6.090;2022-10-26T04:29:06;9.50;99.90
54700;DHT22;40599;53.132;6.090;2022-10-26T04:31:33;9.50;99.90
54700;DHT22;40599;53.132;6.090;2022-10-26T04:33:59;9.60;99.90
54700;DHT22;40599;53.132;6.090;2022-10-26T04:36:24;9.60;99.90
54700;DHT22;40599;53.132;6.090;2022-10-26T04:38:50;9.60;99.90
54700;DHT22;40599;53.132;6.090;2022-10-26T04:41:15;9.60;99.90
54700;DHT22;40599;53.132;6.090;2022-10-26T04:43:41;9.70;99.90
54700;DHT22;40599;53.132;6.090;2022-10-26T04:46:07;9.70;99.90
54700;DHT22;40599;53.132;6.090;2022-10-26T04:48:32;9.70;99.90
54700;DHT22;40599;53.132;6.090;2022-10-26T04:50:58;9.70;99.90
54700;DHT22;40599;53.132;6.090;2022-10-26T04:53:24;9.80;99.90
54700;DHT22;40599;53.132;6.090;2022-10-26T04:55:54;9.80;99.90
54700;DHT22;40599;53.132;6.090;2022-10-26T04:58:20;9.80;99.90
54700;DHT22;40599;53.132;6.090;2022-10-26T05:00:45;9.80;99.90
54700;DHT22;40599;53.132;6.090;2022-10-26T05:03:11;9.90;99.90
54700;DHT22;40599;53.132;6.090;2022-10-26T05:05:37;9.90;99.90
54700;DHT22;40599;53.132;6.090;2022-10-26T05:08:02;9.90;99.90
54700;DHT22;40599;53.132;6.090;2022-10-26T05:10:28;9.90;99.90
54700;DHT22;40599;53.132;6.090;2022-10-26T05:12:54;9.90;99.90
54700;DHT22;40599;53.132;6.090;2022-10-26T05:15:21;10.00;99.90
54700;DHT22;40599;53.132;6.090;2022-10-26T05:17:46;10.00;99.90
54700;DHT22;40599;53.132;6.090;2022-10-26T05:20:12;10.00;99.90
54700;DHT22;40599;53.132;6.090;2022-10-26T05:22:39;10.00;99.90
54700;DHT22;40599;53.132;6.090;2022-10-26T05:25:04;10.00;99.90
54700;DHT22;40599;53.132;6.090;2022-10-26T05:27:30;10.10;99.90
54700;DHT22;40599;53.132;6.090;2022-10-26T05:29:56;10.10;99.90
54700;DHT22;40599;53.132;6.090;2022-10-26T05:32:21;10.10;99.90
54700;DHT22;40599;53.132;6.090;2022-10-26T05:34:47;10.10;99.90
54700;DHT22;40599;53.132;6.090;2022-10-26T05:37:12;10.20;99.90
54700;DHT22;40599;53.132;6.090;2022-10-26T05:39:38;10.20;99.90
54700;DHT22;40599;53.132;6.090;2022-10-26T05:42:04;10.30;99.90
54700;DHT22;40599;53.132;6.090;2022-10-26T05:44:29;10.30;99.90
54700;DHT22;40599;53.132;6.090;2022-10-26T05:46:55;10.30;99.90
54700;DHT22;40599;53.132;6.090;2022-10-26T05:49:20;10.30;99.90
54700;DHT22;40599;53.132;6.090;2022-10-26T05:52:00;10.30;99.90
54700;DHT22;40599;53.132;6.090;2022-10-26T05:55:12;10.30;99.90
54700;DHT22;40599;53.132;6.090;2022-10-26T05:57:37;10.40;99.90
54700;DHT22;40599;53.132;6.090;2022-10-26T06:00:14;10.40;99.90
54700;DHT22;40599;53.132;6.090;2022-10-26T06:05:08;10.40;99.90
54700;DHT22;40599;53.132;6.090;2022-10-26T06:07:35;10.40;99.90
54700;DHT22;40599;53.132;6.090;2022-10-26T06:10:01;10.50;99.90
54700;DHT22;40599;53.132;6.090;2022-10-26T06:12:27;10.50;99.90
54700;DHT22;40599;53.132;6.090;2022-10-26T06:14:52;10.50;99.90
54700;DHT22;40599;53.132;6.090;2022-10-26T06:17:25;10.50;99.90
54700;DHT22;40599;53.132;6.090;2022-10-26T06:22:31;10.60;99.90
54700;DHT22;40599;53.132;6.090;2022-10-26T06:32:28;10.70;99.90
54700;DHT22;40599;53.132;6.090;2022-10-26T06:37:29;10.70;99.90
54700;DHT22;40599;53.132;6.090;2022-10-26T06:39:55;10.70;99.90
54700;DHT22;40599;53.132;6.090;2022-10-26T06:42:21;10.70;99.90
54700;DHT22;40599;53.132;6.090;2022-10-26T06:44:47;10.70;99.90
54700;DHT22;40599;53.132;6.090;2022-10-26T06:57:17;10.60;99.90
54700;DHT22;40599;53.132;6.090;2022-10-26T06:59:44;10.60;99.90
54700;DHT22;40599;53.132;6.090;2022-10-26T07:02:11;10.70;99.90
54700;DHT22;40599;53.132;6.090;2022-10-26T07:04:37;10.70;99.90
54700;DHT22;40599;53.132;6.090;2022-10-26T07:07:02;10.60;99.90
54700;DHT22;40599;53.132;6.090;2022-10-26T07:09:28;10.70;99.90
54700;DHT22;40599;53.132;6.090;2022-10-26T07:11:54;10.70;99.90
54700;DHT22;40599;53.132;6.090;2022-10-26T07:14:19;10.80;99.90
54700;DHT22;40599;53.132;6.090;2022-10-26T07:16:45;10.80;99.90
54700;DHT22;40599;53.132;6.090;2022-10-26T07:19:10;10.90;99.90
54700;DHT22;40599;53.132;6.090;2022-10-26T07:21:36;11.00;99.90
54700;DHT22;40599;53.132;6.090;2022-10-26T07:24:02;11.00;99.90
54700;DHT22;40599;53.132;6.090;2022-10-26T07:26:27;11.00;99.90
54700;DHT22;40599;53.132;6.090;2022-10-26T07:28:53;11.10;99.90
54700;DHT22;40599;53.132;6.090;2022-10-26T07:31:19;11.00;99.90
54700;DHT22;40599;53.132;6.090;2022-10-26T07:33:44;11.20;99.90
54700;DHT22;40599;53.132;6.090;2022-10-26T07:36:10;11.30;99.90
54700;DHT22;40599;53.132;6.090;2022-10-26T07:38:37;11.30;99.90
54700;DHT22;40599;53.132;6.090;2022-10-26T07:41:02;11.40;99.90
54700;DHT22;40599;53.132;6.090;2022-10-26T07:43:28;11.40;99.90
54700;DHT22;40599;53.132;6.090;2022-10-26T07:45:54;11.40;99.90
54700;DHT22;40599;53.132;6.090;2022-10-26T07:48:19;11.60;99.90
54700;DHT22;40599;53.132;6.090;2022-10-26T07:50:45;11.60;99.90
54700;DHT22;40599;53.132;6.090;2022-10-26T07:53:11;11.70;99.90
54700;DHT22;40599;53.132;6.090;2022-10-26T08:00:29;12.10;99.90
54700;DHT22;40599;53.132;6.090;2022-10-26T08:02:54;11.90;99.90
54700;DHT22;40599;53.132;6.090;2022-10-26T08:05:20;12.00;99.90
54700;DHT22;40599;53.132;6.090;2022-10-26T08:07:46;12.10;99.90
54700;DHT22;40599;53.132;6.090;2022-10-26T08:10:11;12.10;99.90
54700;DHT22;40599;53.132;6.090;2022-10-26T08:12:37;12.20;99.90
54700;DHT22;40599;53.132;6.090;2022-10-26T08:15:03;12.30;99.90
54700;DHT22;40599;53.132;6.090;2022-10-26T08:17:29;12.40;99.90
54700;DHT22;40599;53.132;6.090;2022-10-26T08:19:54;12.50;99.90
54700;DHT22;40599;53.132;6.090;2022-10-26T08:22:20;12.70;99.90
54700;DHT22;40599;53.132;6.090;2022-10-26T08:24:45;12.70;99.90
54700;DHT22;40599;53.132;6.090;2022-10-26T08:27:12;12.90;99.90
54700;DHT22;40599;53.132;6.090;2022-10-26T08:29:39;13.00;99.90
54700;DHT22;40599;53.132;6.090;2022-10-26T08:32:04;13.20;99.90
54700;DHT22;40599;53.132;6.090;2022-10-26T08:34:30;13.20;99.90
54700;DHT22;40599;53.132;6.090;2022-10-26T08:36:56;13.30;99.90
54700;DHT22;40599;53.132;6.090;2022-10-26T08:39:23;13.40;99.90
54700;DHT22;40599;53.132;6.090;2022-10-26T08:41:53;13.90;99.90
54700;DHT22;40599;53.132;6.090;2022-10-26T08:51:59;14.00;99.90
54700;DHT22;40599;53.132;6.090;2022-10-26T08:54:28;14.00;99.90
54700;DHT22;40599;53.132;6.090;2022-10-26T08:56:56;14.10;99.90
54700;DHT22;40599;53.132;6.090;2022-10-26T08:59:30;14.10;99.90
54700;DHT22;40599;53.132;6.090;2022-10-26T09:01:59;14.10;99.90
54700;DHT22;40599;53.132;6.090;2022-10-26T09:16:52;14.90;99.90
54700;DHT22;40599;53.132;6.090;2022-10-26T09:22:10;14.80;99.90
54700;DHT22;40599;53.132;6.090;2022-10-26T09:24:41;14.70;99.90
54700;DHT22;40599;53.132;6.090;2022-10-26T09:41:48;14.90;99.90
54700;DHT22;40599;53.132;6.090;2022-10-26T09:44:23;15.00;99.90
54700;DHT22;40599;53.132;6.090;2022-10-26T09:49:17;15.10;99.90
54700;DHT22;40599;53.132;6.090;2022-10-26T09:51:45;15.30;99.90
54700;DHT22;40599;53.132;6.090;2022-10-26T09:56:37;15.40;99.90
54700;DHT22;40599;53.132;6.090;2022-10-26T09:59:04;15.50;99.90
54700;DHT22;40599;53.132;6.090;2022-10-26T10:01:31;15.60;99.90
54700;DHT22;40599;53.132;6.090;2022-10-26T10:04:07;15.60;99.90
54700;DHT22;40599;53.132;6.090;2022-10-26T10:06:33;15.60;99.90
54700;DHT22;40599;53.132;6.090;2022-10-26T10:09:06;15.60;99.90
54700;DHT22;40599;53.132;6.090;2022-10-26T10:14:05;15.60;99.90
54700;DHT22;40599;53.132;6.090;2022-10-26T10:16:31;15.60;99.90
54700;DHT22;40599;53.132;6.090;2022-10-26T10:18:57;15.60;99.90
54700;DHT22;40599;53.132;6.090;2022-10-26T10:21:36;15.70;99.90
54700;DHT22;40599;53.132;6.090;2022-10-26T10:24:02;15.70;99.90
54700;DHT22;40599;53.132;6.090;2022-10-26T10:26:55;15.80;99.90
54700;DHT22;40599;53.132;6.090;2022-10-26T10:29:23;15.90;99.90
54700;DHT22;40599;53.132;6.090;2022-10-26T10:31:54;16.00;99.90
54700;DHT22;40599;53.132;6.090;2022-10-26T10:34:20;16.00;99.90
54700;DHT22;40599;53.132;6.090;2022-10-26T10:36:46;16.10;99.90
54700;DHT22;40599;53.132;6.090;2022-10-26T10:41:53;16.20;99.90
54700;DHT22;40599;53.132;6.090;2022-10-26T10:44:23;16.30;99.90
54700;DHT22;40599;53.132;6.090;2022-10-26T10:46:50;16.40;99.90
54700;DHT22;40599;53.132;6.090;2022-10-26T10:49:24;16.40;99.90
54700;DHT22;40599;53.132;6.090;2022-10-26T10:51:51;16.40;99.90
54700;DHT22;40599;53.132;6.090;2022-10-26T10:54:25;16.50;99.90
54700;DHT22;40599;53.132;6.090;2022-10-26T10:56:52;16.50;99.90
54700;DHT22;40599;53.132;6.090;2022-10-26T10:59:26;16.60;99.90
54700;DHT22;40599;53.132;6.090;2022-10-26T11:04:43;16.80;99.90
54700;DHT22;40599;53.132;6.090;2022-10-26T11:07:13;16.80;99.90
54700;DHT22;40599;53.132;6.090;2022-10-26T11:09:40;16.90;99.90
54700;DHT22;40599;53.132;6.090;2022-10-26T11:12:23;16.90;99.90
54700;DHT22;40599;53.132;6.090;2022-10-26T11:14:52;16.90;99.90
54700;DHT22;40599;53.132;6.090;2022-10-26T11:17:19;16.90;99.90
54700;DHT22;40599;53.132;6.090;2022-10-26T11:19:50;16.90;99.90
54700;DHT22;40599;53.132;6.090;2022-10-26T11:22:40;16.90;99.90
54700;DHT22;40599;53.132;6.090;2022-10-26T11:25:04;16.90;99.90
54700;DHT22;40599;53.132;6.090;2022-10-26T11:27:33;17.00;99.90
54700;DHT22;40599;53.132;6.090;2022-10-26T11:30:05;17.00;99.90
54700;DHT22;40599;53.132;6.090;2022-10-26T11:32:33;17.10;99.90
54700;DHT22;40599;53.132;6.090;2022-10-26T11:35:03;17.10;99.90
54700;DHT22;40599;53.132;6.090;2022-10-26T11:45:35;17.20;99.90
54700;DHT22;40599;53.132;6.090;2022-10-26T11:50:33;17.30;99.90
54700;DHT22;40599;53.132;6.090;2022-10-26T11:53:04;17.30;99.90
54700;DHT22;40599;53.132;6.090;2022-10-26T11:57:59;17.40;99.90
54700;DHT22;40599;53.132;6.090;2022-10-26T12:00:27;17.50;99.90
54700;DHT22;40599;53.132;6.090;2022-10-26T12:03:05;17.50;99.90
54700;DHT22;40599;53.132;6.090;2022-10-26T12:05:32;17.60;99.90
54700;DHT22;40599;53.132;6.090;2022-10-26T12:08:16;17.60;99.90
54700;DHT22;40599;53.132;6.090;2022-10-26T12:10:45;17.70;99.90
54700;DHT22;40599;53.132;6.090;2022-10-26T12:15:48;17.60;99.90
54700;DHT22;40599;53.132;6.090;2022-10-26T12:23:33;17.50;99.90
54700;DHT22;40599;53.132;6.090;2022-10-26T12:28:43;17.50;99.90
54700;DHT22;40599;53.132;6.090;2022-10-26T12:33:53;17.50;99.90
54700;DHT22;40599;53.132;6.090;2022-10-26T12:39:43;17.60;99.90
54700;DHT22;40599;53.132;6.090;2022-10-26T12:44:38;17.60;99.90
54700;DHT22;40599;53.132;6.090;2022-10-26T12:47:06;17.70;99.90
54700;DHT22;40599;53.132;6.090;2022-10-26T12:52:17;17.70;99.90
54700;DHT22;40599;53.132;6.090;2022-10-26T12:54:44;17.80;99.90
54700;DHT22;40599;53.132;6.090;2022-10-26T12:57:26;17.80;99.90
54700;DHT22;40599;53.132;6.090;2022-10-26T12:59:59;17.70;99.90
54700;DHT22;40599;53.132;6.090;2022-10-26T13:07:44;17.80;99.90
54700;DHT22;40599;53.132;6.090;2022-10-26T13:15:23;17.80;99.90
54700;DHT22;40599;53.132;6.090;2022-10-26T13:18:00;17.80;99.90
54700;DHT22;40599;53.132;6.090;2022-10-26T13:20:28;17.80;99.90
54700;DHT22;40599;53.132;6.090;2022-10-26T13:22:54;17.90;99.90
54700;DHT22;40599;53.132;6.090;2022-10-26T13:25:21;17.90;99.90
54700;DHT22;40599;53.132;6.090;2022-10-26T13:30:49;17.90;99.90
54700;DHT22;40599;53.132;6.090;2022-10-26T13:33:16;17.90;99.90
54700;DHT22;40599;53.132;6.090;2022-10-26T13:35:43;17.80;99.90
54700;DHT22;40599;53.132;6.090;2022-10-26T13:38:09;17.80;99.90
54700;DHT22;40599;53.132;6.090;2022-10-26T13:40:36;17.80;99.90
54700;DHT22;40599;53.132;6.090;2022-10-26T13:43:02;17.80;99.90
54700;DHT22;40599;53.132;6.090;2022-10-26T13:45:29;17.80;99.90
54700;DHT22;40599;53.132;6.090;2022-10-26T13:55:53;17.70;99.90
54700;DHT22;40599;53.132;6.090;2022-10-26T13:58:41;17.70;99.90
54700;DHT22;40599;53.132;6.090;2022-10-26T14:03:34;17.70;99.90
54700;DHT22;40599;53.132;6.090;2022-10-26T14:06:03;17.60;99.90
54700;DHT22;40599;53.132;6.090;2022-10-26T14:08:29;17.70;99.90
54700;DHT22;40599;53.132;6.090;2022-10-26T14:10:55;17.70;99.90
54700;DHT22;40599;53.132;6.090;2022-10-26T14:13:23;17.70;99.90
54700;DHT22;40599;53.132;6.090;2022-10-26T14:15:50;17.70;99.90
54700;DHT22;40599;53.132;6.090;2022-10-26T14:18:17;17.70;99.90
54700;DHT22;40599;53.132;6.090;2022-10-26T14:20:46;17.80;99.90
54700;DHT22;40599;53.132;6.090;2022-10-26T14:23:25;17.70;99.90
54700;DHT22;40599;53.132;6.090;2022-10-26T14:25:54;17.70;99.90
54700;DHT22;40599;53.132;6.090;2022-10-26T14:28:21;17.70;99.90
54700;DHT22;40599;53.132;6.090;2022-10-26T14:30:47;17.70;99.90
54700;DHT22;40599;53.132;6.090;2022-10-26T14:33:22;17.70;99.90
54700;DHT22;40599;53.132;6.090;2022-10-26T14:35:49;17.70;99.90
54700;DHT22;40599;53.132;6.090;2022-10-26T14:40:43;17.60;99.90
54700;DHT22;40599;53.132;6.090;2022-10-26T14:43:15;17.50;99.90
54700;DHT22;40599;53.132;6.090;2022-10-26T14:45:45;17.50;99.90
54700;DHT22;40599;53.132;6.090;2022-10-26T14:48:14;17.50;99.90
54700;DHT22;40599;53.132;6.090;2022-10-26T14:50:45;17.50;99.90
54700;DHT22;40599;53.132;6.090;2022-10-26T14:53:21;17.50;99.90
54700;DHT22;40599;53.132;6.090;2022-10-26T14:55:48;17.50;99.90
54700;DHT22;40599;53.132;6.090;2022-10-26T14:58:21;17.50;99.90
54700;DHT22;40599;53.132;6.090;2022-10-26T15:01:12;17.50;99.90
54700;DHT22;40599;53.132;6.090;2022-10-26T15:03:33;17.50;99.90
54700;DHT22;40599;53.132;6.090;2022-10-26T15:06:20;17.40;99.90
54700;DHT22;40599;53.132;6.090;2022-10-26T15:08:44;17.40;99.90
54700;DHT22;40599;53.132;6.090;2022-10-26T15:11:11;17.30;99.90
54700;DHT22;40599;53.132;6.090;2022-10-26T15:13:38;17.30;99.90
54700;DHT22;40599;53.132;6.090;2022-10-26T15:16:18;17.20;99.90
54700;DHT22;40599;53.132;6.090;2022-10-26T15:18:45;17.20;99.90
54700;DHT22;40599;53.132;6.090;2022-10-26T15:21:29;17.20;99.90
54700;DHT22;40599;53.132;6.090;2022-10-26T15:23:55;17.10;99.90
54700;DHT22;40599;53.132;6.090;2022-10-26T15:26:21;17.00;99.90
54700;DHT22;40599;53.132;6.090;2022-10-26T15:28:47;17.00;99.90
54700;DHT22;40599;53.132;6.090;2022-10-26T15:33:40;17.00;99.90
54700;DHT22;40599;53.132;6.090;2022-10-26T15:38:35;16.90;99.90
54700;DHT22;40599;53.132;6.090;2022-10-26T15:41:04;16.90;99.90
54700;DHT22;40599;53.132;6.090;2022-10-26T15:43:33;16.90;99.90
54700;DHT22;40599;53.132;6.090;2022-10-26T15:45:59;16.80;99.90
54700;DHT22;40599;53.132;6.090;2022-10-26T15:48:25;16.80;99.90
54700;DHT22;40599;53.132;6.090;2022-10-26T15:50:53;16.80;99.90
54700;DHT22;40599;53.132;6.090;2022-10-26T15:53:19;16.70;99.90
54700;DHT22;40599;53.132;6.090;2022-10-26T15:55:46;16.70;99.90
54700;DHT22;40599;53.132;6.090;2022-10-26T15:58:11;16.70;99.90
54700;DHT22;40599;53.132;6.090;2022-10-26T16:00:37;16.70;99.90
54700;DHT22;40599;53.132;6.090;2022-10-26T16:03:03;16.60;99.90
54700;DHT22;40599;53.132;6.090;2022-10-26T16:05:28;16.60;99.90
54700;DHT22;40599;53.132;6.090;2022-10-26T16:07:54;16.60;99.90
54700;DHT22;40599;53.132;6.090;2022-10-26T16:10:23;16.60;99.90
54700;DHT22;40599;53.132;6.090;2022-10-26T16:12:49;16.50;99.90
54700;DHT22;40599;53.132;6.090;2022-10-26T16:15:19;16.50;99.90
54700;DHT22;40599;53.132;6.090;2022-10-26T16:17:45;16.50;99.90
54700;DHT22;40599;53.132;6.090;2022-10-26T16:20:12;16.50;99.90
54700;DHT22;40599;53.132;6.090;2022-10-26T16:22:38;16.40;99.90
54700;DHT22;40599;53.132;6.090;2022-10-26T16:25:06;16.40;99.90
54700;DHT22;40599;53.132;6.090;2022-10-26T16:27:32;16.40;99.90
54700;DHT22;40599;53.132;6.090;2022-10-26T16:29:57;16.40;99.90
54700;DHT22;40599;53.132;6.090;2022-10-26T16:32:23;16.40;99.90
54700;DHT22;40599;53.132;6.090;2022-10-26T16:34:48;16.30;99.90
54700;DHT22;40599;53.132;6.090;2022-10-26T16:37:14;16.30;99.90
54700;DHT22;40599;53.132;6.090;2022-10-26T16:39:40;16.30;99.90
54700;DHT22;40599;53.132;6.090;2022-10-26T16:42:05;16.30;99.90
54700;DHT22;40599;53.132;6.090;2022-10-26T16:46:57;16.10;99.90
54700;DHT22;40599;53.132;6.090;2022-10-26T16:59:08;16.20;99.90
54700;DHT22;40599;53.132;6.090;2022-10-26T17:01:34;16.20;99.90
54700;DHT22;40599;53.132;6.090;2022-10-26T17:04:00;16.00;99.90
54700;DHT22;40599;53.132;6.090;2022-10-26T17:06:27;16.10;99.90
54700;DHT22;40599;53.132;6.090;2022-10-26T17:08:53;15.90;99.90
54700;DHT22;40599;53.132;6.090;2022-10-26T17:11:19;16.10;99.90
54700;DHT22;40599;53.132;6.090;2022-10-26T17:13:46;15.80;99.90
54700;DHT22;40599;53.132;6.090;2022-10-26T17:16:13;16.20;99.90
54700;DHT22;40599;53.132;6.090;2022-10-26T17:18:39;15.90;99.90
54700;DHT22;40599;53.132;6.090;2022-10-26T17:21:06;15.80;99.90
54700;DHT22;40599;53.132;6.090;2022-10-26T17:23:31;15.90;99.90
54700;DHT22;40599;53.132;6.090;2022-10-26T17:26:04;15.80;99.90
54700;DHT22;40599;53.132;6.090;2022-10-26T17:28:29;15.80;99.90
54700;DHT22;40599;53.132;6.090;2022-10-26T17:31:05;15.70;99.90
54700;DHT22;40599;53.132;6.090;2022-10-26T17:33:32;15.70;99.90
54700;DHT22;40599;53.132;6.090;2022-10-26T17:35:58;15.70;99.90
54700;DHT22;40599;53.132;6.090;2022-10-26T17:38:23;15.70;99.90
54700;DHT22;40599;53.132;6.090;2022-10-26T17:40:49;15.60;99.90
54700;DHT22;40599;53.132;6.090;2022-10-26T17:43:14;15.60;99.90
54700;DHT22;40599;53.132;6.090;2022-10-26T17:45:40;15.60;99.90
54700;DHT22;40599;53.132;6.090;2022-10-26T17:48:05;15.60;99.90
54700;DHT22;40599;53.132;6.090;2022-10-26T17:50:31;15.50;99.90
54700;DHT22;40599;53.132;6.090;2022-10-26T17:52:57;15.50;99.90
54700;DHT22;40599;53.132;6.090;2022-10-26T17:55:22;15.50;99.90
54700;DHT22;40599;53.132;6.090;2022-10-26T17:57:48;15.50;99.90
54700;DHT22;40599;53.132;6.090;2022-10-26T18:00:13;15.50;99.90
54700;DHT22;40599;53.132;6.090;2022-10-26T18:02:39;15.50;99.90
54700;DHT22;40599;53.132;6.090;2022-10-26T18:05:05;15.50;99.90
54700;DHT22;40599;53.132;6.090;2022-10-26T18:07:31;15.50;99.90
54700;DHT22;40599;53.132;6.090;2022-10-26T18:09:56;15.50;99.90
54700;DHT22;40599;53.132;6.090;2022-10-26T18:12:22;15.50;99.90
54700;DHT22;40599;53.132;6.090;2022-10-26T18:14:48;15.50;99.90
54700;DHT22;40599;53.132;6.090;2022-10-26T18:17:13;15.50;99.90
54700;DHT22;40599;53.132;6.090;2022-10-26T18:19:39;15.50;99.90
54700;DHT22;40599;53.132;6.090;2022-10-26T18:22:04;15.40;99.90
54700;DHT22;40599;53.132;6.090;2022-10-26T18:24:30;15.50;99.90
54700;DHT22;40599;53.132;6.090;2022-10-26T18:26:55;15.50;99.90
54700;DHT22;40599;53.132;6.090;2022-10-26T18:29:22;15.40;99.90
54700;DHT22;40599;53.132;6.090;2022-10-26T18:31:47;15.40;99.90
54700;DHT22;40599;53.132;6.090;2022-10-26T18:34:13;15.40;99.90
54700;DHT22;40599;53.132;6.090;2022-10-26T18:36:39;15.40;99.90
54700;DHT22;40599;53.132;6.090;2022-10-26T18:39:04;15.40;99.90
54700;DHT22;40599;53.132;6.090;2022-10-26T18:41:30;15.40;99.90
54700;DHT22;40599;53.132;6.090;2022-10-26T18:43:56;15.30;99.90
54700;DHT22;40599;53.132;6.090;2022-10-26T18:46:27;15.30;99.90
54700;DHT22;40599;53.132;6.090;2022-10-26T18:48:53;15.30;99.90